createdAt,value
2023-02-01T00:00:56.835Z,77.80
2023-02-01T00:03:23.494Z,77.80
2023-02-01T00:06:00.426Z,77.90
2023-02-01T00:08:27.319Z,77.70
2023-02-01T00:11:12.901Z,77.60
2023-02-01T00:13:40.760Z,77.40
2023-02-01T00:16:09.436Z,77.40
2023-02-01T00:18:36.276Z,77.40
2023-02-01T00:21:02.952Z,77.40
2023-02-01T00:23:29.668Z,77.40
2023-02-01T00:25:56.323Z,77.50
2023-02-01T00:28:23.012Z,77.60
2023-02-01T00:31:00.121Z,77.60
2023-02-01T00:33:27.120Z,77.60
2023-02-01T00:36:00.596Z,77.60
2023-02-01T00:38:28.066Z,77.60
2023-02-01T00:40:55.303Z,77.70
2023-02-01T00:43:22.014Z,77.70
2023-02-01T00:45:48.662Z,77.90
2023-02-01T00:48:15.293Z,78.10
2023-02-01T00:50:45.072Z,78.80
2023-02-01T00:53:12.200Z,78.80
2023-02-01T00:55:38.992Z,79.40
2023-02-01T00:58:05.658Z,79.70
2023-02-01T01:00:35.197Z,79.90
2023-02-01T01:03:01.929Z,80.10
2023-02-01T01:05:28.619Z,80.40
2023-02-01T01:07:55.227Z,80.30
2023-02-01T01:10:22.229Z,80.40
2023-02-01T01:12:49.089Z,80.40
2023-02-01T01:15:15.727Z,80.50
2023-02-01T01:17:42.384Z,80.50
2023-02-01T01:20:09.853Z,80.40
2023-02-01T01:22:36.501Z,80.40
2023-02-01T01:25:13.409Z,80.20
2023-02-01T01:27:40.056Z,80.30
2023-02-01T01:30:07.573Z,80.20
2023-02-01T01:32:34.236Z,80.20
2023-02-01T01:35:00.876Z,80.10
2023-02-01T01:37:27.626Z,80.00
2023-02-01T01:39:54.248Z,80.00
2023-02-01T01:42:20.852Z,79.90
2023-02-01T01:45:01.576Z,79.90
2023-02-01T01:47:29.546Z,79.90
2023-02-01T01:49:56.204Z,79.90
2023-02-01T01:52:22.852Z,80.00
2023-02-01T01:54:51.506Z,80.00
2023-02-01T01:57:19.820Z,80.20
2023-02-01T01:59:49.488Z,80.20
2023-02-01T02:02:16.267Z,80.10
2023-02-01T02:04:42.881Z,80.20
2023-02-01T02:07:13.935Z,80.10
2023-02-01T02:09:45.464Z,80.20
2023-02-01T02:12:14.751Z,80.20
2023-02-01T02:14:41.379Z,80.10
2023-02-01T02:17:11.066Z,80.00
2023-02-01T02:19:40.793Z,79.90
2023-02-01T02:22:19.674Z,79.80
2023-02-01T02:25:12.186Z,79.70
2023-02-01T02:28:00.887Z,79.60
2023-02-01T02:30:35.446Z,79.60
2023-02-01T02:33:34.698Z,79.40
2023-02-01T02:36:24.890Z,79.50
2023-02-01T02:39:05.986Z,79.40
2023-02-01T02:41:54.099Z,79.30
2023-02-01T02:44:22.650Z,79.40
2023-02-01T02:46:49.955Z,79.30
2023-02-01T02:49:26.250Z,79.40
2023-02-01T02:52:13.435Z,79.40
2023-02-01T02:54:42.858Z,79.40
2023-02-01T02:57:10.765Z,79.30
2023-02-01T02:59:37.412Z,79.20
2023-02-01T03:02:04.129Z,79.30
2023-02-01T03:04:30.811Z,79.30
2023-02-01T03:06:57.467Z,79.30
2023-02-01T03:09:28.073Z,79.40
2023-02-01T03:11:57.609Z,79.40
2023-02-01T03:14:24.249Z,79.40
2023-02-01T03:16:52.887Z,79.40
2023-02-01T03:19:24.111Z,79.50
2023-02-01T03:24:33.872Z,79.50
2023-02-01T03:27:05.799Z,79.50
2023-02-01T03:29:38.009Z,79.50
2023-02-01T03:32:04.802Z,79.60
2023-02-01T03:34:31.421Z,79.70
2023-02-01T03:37:05.495Z,79.70
2023-02-01T03:39:44.176Z,79.80
2023-02-01T03:42:33.892Z,79.90
2023-02-01T03:45:23.204Z,80.10
2023-02-01T03:47:50.752Z,80.00
2023-02-01T03:50:21.269Z,80.10
2023-02-01T03:52:57.876Z,80.20
2023-02-01T03:55:24.838Z,80.40
2023-02-01T03:58:03.882Z,80.30
2023-02-01T04:00:30.555Z,80.40
2023-02-01T04:03:07.660Z,80.40
2023-02-01T04:05:34.690Z,80.30
2023-02-01T04:08:01.331Z,80.50
2023-02-01T04:10:28.000Z,80.40
2023-02-01T04:12:54.618Z,80.60
2023-02-01T04:15:21.270Z,80.60
2023-02-01T04:17:47.906Z,80.60
2023-02-01T04:20:14.597Z,80.70
2023-02-01T04:22:41.246Z,80.50
2023-02-01T04:25:08.537Z,80.60
2023-02-01T04:27:35.676Z,80.80
2023-02-01T04:30:03.104Z,80.90
2023-02-01T04:32:29.860Z,80.90
2023-02-01T04:34:56.555Z,80.90
2023-02-01T04:37:23.226Z,80.90
2023-02-01T04:39:49.889Z,80.90
2023-02-01T04:42:16.544Z,80.90
2023-02-01T04:44:43.209Z,80.80
2023-02-01T04:47:09.837Z,80.80
2023-02-01T04:49:36.457Z,80.90
2023-02-01T04:52:03.141Z,80.80
2023-02-01T04:54:31.301Z,80.90
2023-02-01T04:56:57.961Z,80.80
2023-02-01T04:59:24.669Z,80.80
2023-02-01T05:01:51.400Z,80.90
2023-02-01T05:04:18.146Z,80.90
2023-02-01T05:06:45.088Z,80.80
2023-02-01T05:09:11.934Z,80.80
2023-02-01T05:11:38.690Z,80.80
2023-02-01T05:14:05.322Z,80.90
2023-02-01T05:16:32.078Z,81.00
2023-02-01T05:18:58.715Z,81.10
2023-02-01T05:21:25.746Z,81.20
2023-02-01T05:23:52.409Z,81.30
2023-02-01T05:26:19.027Z,81.20
2023-02-01T05:28:45.674Z,81.20
2023-02-01T05:31:26.681Z,81.20
2023-02-01T05:33:58.530Z,81.20
2023-02-01T05:36:25.447Z,81.10
2023-02-01T05:38:52.126Z,81.00
2023-02-01T05:41:18.802Z,80.90
2023-02-01T05:43:45.489Z,80.90
2023-02-01T05:46:12.204Z,80.90
2023-02-01T05:48:39.403Z,80.80
2023-02-01T05:51:06.270Z,80.70
2023-02-01T05:53:32.974Z,80.70
2023-02-01T05:55:59.734Z,80.50
2023-02-01T05:58:26.438Z,80.50
2023-02-01T06:00:53.133Z,80.50
2023-02-01T06:03:19.876Z,80.40
2023-02-01T06:05:47.044Z,80.40
2023-02-01T06:08:14.164Z,80.40
2023-02-01T06:10:40.951Z,80.40
2023-02-01T06:13:07.621Z,80.30
2023-02-01T06:15:34.415Z,80.40
2023-02-01T06:18:02.305Z,80.20
2023-02-01T06:20:28.975Z,80.10
2023-02-01T06:22:58.822Z,80.00
2023-02-01T06:25:25.561Z,79.90
2023-02-01T06:27:52.164Z,79.80
2023-02-01T06:30:18.987Z,79.70
2023-02-01T06:32:45.775Z,79.80
2023-02-01T06:35:12.491Z,79.80
2023-02-01T06:37:39.323Z,79.80
2023-02-01T06:40:06.555Z,79.70
2023-02-01T06:42:33.234Z,79.70
2023-02-01T06:44:59.950Z,79.80
2023-02-01T06:47:26.632Z,79.80
2023-02-01T06:49:53.283Z,79.80
2023-02-01T06:52:19.993Z,79.60
2023-02-01T06:54:46.640Z,79.60
2023-02-01T06:57:13.281Z,79.60
2023-02-01T06:59:39.915Z,79.60
2023-02-01T07:02:10.538Z,79.70
2023-02-01T07:04:37.265Z,79.60
2023-02-01T07:07:03.885Z,79.60
2023-02-01T07:09:30.479Z,79.60
2023-02-01T07:11:57.115Z,79.70
2023-02-01T07:14:23.803Z,79.70
2023-02-01T07:16:50.440Z,79.70
2023-02-01T07:19:17.121Z,79.60
2023-02-01T07:21:43.742Z,79.50
2023-02-01T07:24:10.517Z,79.70
2023-02-01T07:26:37.252Z,79.90
2023-02-01T07:29:03.909Z,79.90
2023-02-01T07:31:30.598Z,80.00
2023-02-01T07:33:57.279Z,80.10
2023-02-01T07:36:32.744Z,80.20
2023-02-01T07:38:59.342Z,80.20
2023-02-01T07:41:28.493Z,80.20
2023-02-01T07:43:55.433Z,80.20
2023-02-01T07:46:33.235Z,80.40
2023-02-01T07:48:59.973Z,80.30
2023-02-01T07:51:26.639Z,80.40
2023-02-01T07:53:56.524Z,80.40
2023-02-01T07:56:23.109Z,80.50
2023-02-01T07:58:54.177Z,80.60
2023-02-01T08:01:22.654Z,80.40
2023-02-01T08:03:50.269Z,80.30
2023-02-01T08:06:16.977Z,80.30
2023-02-01T08:08:43.741Z,80.30
2023-02-01T08:11:10.430Z,80.30
2023-02-01T08:13:37.051Z,80.30
2023-02-01T08:16:05.582Z,80.20
2023-02-01T08:18:32.282Z,80.00
2023-02-01T08:21:04.153Z,79.90
2023-02-01T08:23:30.905Z,79.80
2023-02-01T08:26:09.012Z,79.70
2023-02-01T08:28:37.771Z,79.60
2023-02-01T08:31:09.164Z,79.60
2023-02-01T08:33:35.988Z,79.60
2023-02-01T08:36:03.980Z,79.50
2023-02-01T08:38:30.665Z,79.50
2023-02-01T08:40:57.644Z,79.50
2023-02-01T08:43:24.423Z,79.40
2023-02-01T08:45:51.364Z,79.20
2023-02-01T08:48:17.975Z,79.10
2023-02-01T08:50:44.672Z,79.00
2023-02-01T08:53:11.275Z,78.60
2023-02-01T08:55:37.903Z,78.60
2023-02-01T08:58:04.679Z,78.70
2023-02-01T09:00:31.380Z,78.50
2023-02-01T09:02:58.065Z,78.50
2023-02-01T09:05:24.752Z,78.20
2023-02-01T09:07:51.409Z,78.10
2023-02-01T09:10:23.495Z,77.90
2023-02-01T09:12:56.595Z,77.70
2023-02-01T09:15:23.286Z,77.50
2023-02-01T09:17:50.464Z,77.30
2023-02-01T09:20:17.314Z,77.00
2023-02-01T09:22:43.956Z,77.00
2023-02-01T09:25:10.722Z,76.60
2023-02-01T09:27:37.369Z,76.60
2023-02-01T09:30:05.055Z,76.30
2023-02-01T09:32:31.797Z,76.20
2023-02-01T09:34:58.440Z,76.10
2023-02-01T09:37:25.157Z,75.80
2023-02-01T09:39:51.800Z,75.50
2023-02-01T09:42:39.587Z,75.10
2023-02-01T09:45:40.266Z,74.90
2023-02-01T09:48:18.278Z,74.20
2023-02-01T09:50:58.490Z,73.80
2023-02-01T09:53:42.497Z,74.30
2023-02-01T09:56:48.777Z,73.70
2023-02-01T09:59:24.412Z,72.40
2023-02-01T10:01:51.063Z,71.80
2023-02-01T10:04:17.996Z,71.40
2023-02-01T10:07:13.646Z,71.40
2023-02-01T10:10:08.426Z,70.10
2023-02-01T10:12:37.858Z,69.30
2023-02-01T10:15:20.618Z,69.90
2023-02-01T10:17:47.255Z,70.20
2023-02-01T10:20:51.364Z,70.40
2023-02-01T10:23:34.838Z,70.70
2023-02-01T10:26:17.088Z,70.80
2023-02-01T10:28:43.816Z,71.10
2023-02-01T10:31:10.653Z,70.90
2023-02-01T10:33:46.030Z,70.80
2023-02-01T10:36:33.732Z,70.60
2023-02-01T10:39:00.593Z,70.60
2023-02-01T10:41:32.721Z,70.90
2023-02-01T10:43:59.909Z,70.80
2023-02-01T10:46:26.756Z,70.70
2023-02-01T10:48:54.514Z,70.40
2023-02-01T10:51:26.636Z,70.00
2023-02-01T10:54:15.658Z,70.20
2023-02-01T10:56:42.315Z,69.90
2023-02-01T10:59:16.320Z,69.60
2023-02-01T11:01:43.616Z,69.40
2023-02-01T11:04:19.984Z,69.30
2023-02-01T11:06:54.775Z,69.00
2023-02-01T11:09:25.388Z,69.20
2023-02-01T11:11:51.984Z,69.30
2023-02-01T11:14:40.469Z,69.10
2023-02-01T11:17:36.650Z,68.30
2023-02-01T11:20:06.782Z,68.80
2023-02-01T11:22:33.393Z,68.80
2023-02-01T11:25:00.660Z,68.80
2023-02-01T11:27:28.126Z,68.60
2023-02-01T11:29:58.182Z,68.40
2023-02-01T11:32:25.024Z,68.30
2023-02-01T11:35:05.362Z,68.30
2023-02-01T11:37:35.266Z,68.30
2023-02-01T11:40:26.297Z,68.10
2023-02-01T11:42:59.106Z,67.70
2023-02-01T11:45:30.284Z,67.80
2023-02-01T11:47:58.397Z,68.10
2023-02-01T11:51:07.048Z,68.00
2023-02-01T11:53:48.580Z,67.70
2023-02-01T11:56:47.021Z,68.10
2023-02-01T11:59:40.997Z,68.10
2023-02-01T12:02:28.656Z,68.20
2023-02-01T12:05:04.951Z,68.30
2023-02-01T12:07:42.345Z,67.90
2023-02-01T12:10:32.239Z,68.20
2023-02-01T12:13:11.532Z,68.40
2023-02-01T12:15:57.083Z,68.40
2023-02-01T12:18:23.675Z,68.30
2023-02-01T12:21:06.188Z,68.20
2023-02-01T12:23:56.124Z,68.10
2023-02-01T12:26:28.642Z,68.50
2023-02-01T12:29:16.150Z,68.40
2023-02-01T12:31:54.848Z,68.50
2023-02-01T12:34:21.504Z,68.50
2023-02-01T12:36:53.955Z,68.30
2023-02-01T12:39:23.327Z,68.10
2023-02-01T12:42:21.226Z,68.30
2023-02-01T12:44:55.539Z,68.40
2023-02-01T12:47:36.891Z,68.40
2023-02-01T12:50:06.395Z,67.70
2023-02-01T12:52:50.332Z,68.20
2023-02-01T12:55:36.342Z,68.20
2023-02-01T12:58:07.943Z,68.40
2023-02-01T13:00:40.943Z,68.30
2023-02-01T13:03:27.440Z,68.60
2023-02-01T13:06:03.469Z,68.50
2023-02-01T13:08:36.073Z,68.50
2023-02-01T13:11:20.711Z,68.40
2023-02-01T13:14:04.396Z,68.40
2023-02-01T13:16:43.235Z,68.40
2023-02-01T13:19:29.641Z,68.60
2023-02-01T13:22:01.385Z,68.90
2023-02-01T13:24:45.668Z,69.00
2023-02-01T13:27:15.628Z,69.20
2023-02-01T13:29:51.299Z,69.20
2023-02-01T13:32:57.033Z,69.10
2023-02-01T13:35:50.162Z,69.30
2023-02-01T13:38:43.319Z,69.30
2023-02-01T13:41:22.269Z,69.40
2023-02-01T13:43:50.026Z,69.20
2023-02-01T13:46:16.615Z,69.30
2023-02-01T13:48:47.891Z,69.40
2023-02-01T13:51:14.557Z,69.50
2023-02-01T13:53:47.153Z,69.50
2023-02-01T13:56:18.830Z,69.70
2023-02-01T13:58:46.985Z,69.70
2023-02-01T14:01:22.569Z,69.80
2023-02-01T14:04:13.016Z,69.70
2023-02-01T14:06:42.716Z,69.70
2023-02-01T14:09:09.421Z,69.70
2023-02-01T14:11:47.437Z,69.80
2023-02-01T14:14:16.976Z,69.80
2023-02-01T14:16:55.928Z,69.70
2023-02-01T14:19:29.525Z,69.90
2023-02-01T14:22:15.260Z,69.80
2023-02-01T14:24:48.192Z,69.70
2023-02-01T14:27:18.316Z,69.90
2023-02-01T14:29:50.870Z,69.90
2023-02-01T14:32:24.448Z,70.00
2023-02-01T14:34:53.039Z,70.00
2023-02-01T14:37:19.699Z,70.10
2023-02-01T14:39:46.311Z,70.20
2023-02-01T14:42:19.819Z,70.30
2023-02-01T14:44:58.277Z,70.40
2023-02-01T14:47:28.929Z,70.50
2023-02-01T14:50:04.298Z,70.50
2023-02-01T14:52:36.997Z,70.70
2023-02-01T14:55:06.820Z,70.80
2023-02-01T14:57:34.567Z,70.90
2023-02-01T15:00:15.925Z,71.10
2023-02-01T15:02:42.647Z,70.90
2023-02-01T15:05:32.634Z,71.00
2023-02-01T15:08:32.351Z,71.30
2023-02-01T15:11:00.195Z,71.60
2023-02-01T15:13:28.034Z,71.30
2023-02-01T15:16:16.124Z,71.40
2023-02-01T15:18:42.969Z,71.60
2023-02-01T15:21:28.399Z,71.70
2023-02-01T15:24:14.996Z,71.80
2023-02-01T15:26:41.744Z,71.90
2023-02-01T15:29:12.488Z,71.80
2023-02-01T15:31:47.213Z,71.90
2023-02-01T15:34:13.996Z,72.00
2023-02-01T15:36:45.820Z,72.00
2023-02-01T15:39:24.403Z,72.00
2023-02-01T15:41:53.532Z,72.10
2023-02-01T15:44:23.109Z,72.20
2023-02-01T15:46:50.730Z,72.30
2023-02-01T15:49:37.196Z,72.20
2023-02-01T15:52:04.052Z,72.30
2023-02-01T15:54:33.651Z,72.30
2023-02-01T15:57:02.077Z,72.40
2023-02-01T15:59:43.341Z,72.70
2023-02-01T16:02:38.692Z,72.80
2023-02-01T16:05:06.493Z,72.80
2023-02-01T16:07:34.347Z,72.90
2023-02-01T16:10:02.173Z,73.00
2023-02-01T16:12:47.575Z,73.00
2023-02-01T16:15:14.456Z,73.10
2023-02-01T16:17:41.124Z,73.10
2023-02-01T16:20:08.378Z,73.20
2023-02-01T16:22:35.076Z,73.30
2023-02-01T16:25:01.947Z,73.40
2023-02-01T16:27:28.574Z,73.50
2023-02-01T16:30:08.232Z,73.50
2023-02-01T16:32:35.285Z,73.70
2023-02-01T16:35:01.966Z,73.80
2023-02-01T16:37:28.791Z,73.90
2023-02-01T16:39:55.442Z,74.30
2023-02-01T16:42:22.100Z,74.30
2023-02-01T16:44:48.729Z,74.40
2023-02-01T16:47:23.589Z,74.30
2023-02-01T16:49:50.513Z,74.30
2023-02-01T16:52:22.942Z,74.40
2023-02-01T16:54:49.655Z,74.50
2023-02-01T16:57:17.931Z,74.50
2023-02-01T16:59:44.674Z,74.50
2023-02-01T17:02:13.279Z,74.70
2023-02-01T17:04:40.324Z,74.60
2023-02-01T17:07:07.255Z,74.60
2023-02-01T17:09:34.417Z,74.60
2023-02-01T17:12:01.030Z,74.60
2023-02-01T17:14:27.695Z,74.70
2023-02-01T17:16:54.445Z,74.60
2023-02-01T17:19:22.213Z,74.70
2023-02-01T17:21:50.339Z,74.60
2023-02-01T17:24:18.294Z,74.70
2023-02-01T17:26:45.308Z,74.70
2023-02-01T17:29:12.155Z,74.70
2023-02-01T17:31:40.809Z,74.60
2023-02-01T17:34:08.655Z,74.70
2023-02-01T17:36:35.461Z,74.70
2023-02-01T17:39:06.001Z,74.80
2023-02-01T17:41:33.321Z,74.90
2023-02-01T17:44:00.113Z,74.90
2023-02-01T17:46:26.801Z,74.90
2023-02-01T17:48:54.289Z,75.00
2023-02-01T17:51:23.459Z,75.00
2023-02-01T17:53:50.142Z,75.10
2023-02-01T17:56:18.826Z,75.30
2023-02-01T17:58:45.635Z,75.40
2023-02-01T18:01:17.406Z,75.50
2023-02-01T18:03:44.239Z,75.40
2023-02-01T18:06:18.940Z,75.40
2023-02-01T18:08:45.894Z,75.50
2023-02-01T18:11:17.989Z,75.60
2023-02-01T18:13:44.992Z,75.60
2023-02-01T18:16:23.209Z,75.70
2023-02-01T18:18:50.158Z,75.90
2023-02-01T18:21:17.791Z,76.10
2023-02-01T18:23:44.689Z,76.10
2023-02-01T18:26:15.599Z,76.10
2023-02-01T18:28:42.622Z,76.20
2023-02-01T18:31:28.774Z,76.40
2023-02-01T18:33:56.338Z,76.50
2023-02-01T18:36:23.188Z,76.50
2023-02-01T18:38:49.869Z,76.60
2023-02-01T18:41:20.203Z,76.70
2023-02-01T18:43:46.962Z,76.80
2023-02-01T18:46:13.968Z,76.90
2023-02-01T18:48:41.330Z,77.00
2023-02-01T18:51:11.106Z,77.20
2023-02-01T18:53:38.094Z,77.20
2023-02-01T18:56:05.142Z,77.30
2023-02-01T18:58:31.889Z,77.30
2023-02-01T19:00:59.469Z,77.40
2023-02-01T19:03:26.273Z,77.60
2023-02-01T19:05:55.191Z,77.80
2023-02-01T19:08:21.826Z,78.30
2023-02-01T19:10:48.495Z,78.60
2023-02-01T19:13:15.139Z,78.60
2023-02-01T19:15:42.343Z,79.20
2023-02-01T19:18:09.307Z,79.00
2023-02-01T19:20:37.529Z,79.00
2023-02-01T19:23:04.149Z,79.00
2023-02-01T19:25:30.862Z,79.10
2023-02-01T19:27:57.516Z,79.30
2023-02-01T19:30:24.302Z,79.20
2023-02-01T19:32:51.305Z,79.20
2023-02-01T19:35:19.524Z,79.20
2023-02-01T19:37:47.092Z,79.10
2023-02-01T19:40:15.859Z,79.00
2023-02-01T19:42:42.522Z,79.00
2023-02-01T19:45:11.001Z,78.90
2023-02-01T19:47:37.726Z,78.90
2023-02-01T19:50:05.048Z,78.70
2023-02-01T19:52:31.812Z,78.70
2023-02-01T19:54:58.572Z,78.50
2023-02-01T19:57:25.214Z,78.50
2023-02-01T19:59:51.950Z,78.50
2023-02-01T20:02:18.633Z,78.50
2023-02-01T20:04:45.308Z,78.50
2023-02-01T20:07:11.969Z,78.60
2023-02-01T20:09:39.042Z,78.70
2023-02-01T20:12:06.202Z,78.70
2023-02-01T20:14:32.857Z,78.80
2023-02-01T20:16:59.566Z,79.00
2023-02-01T20:19:26.265Z,79.20
2023-02-01T20:21:52.933Z,79.40
2023-02-01T20:24:19.572Z,79.80
2023-02-01T20:26:47.152Z,80.00
2023-02-01T20:29:13.842Z,80.10
2023-02-01T20:31:40.622Z,80.20
2023-02-01T20:34:07.496Z,80.30
2023-02-01T20:36:34.156Z,80.50
2023-02-01T20:39:00.764Z,80.80
2023-02-01T20:41:27.491Z,81.00
2023-02-01T20:43:54.221Z,81.20
2023-02-01T20:46:21.020Z,81.40
2023-02-01T20:48:49.671Z,81.70
2023-02-01T20:51:18.011Z,81.80
2023-02-01T20:53:44.680Z,81.90
2023-02-01T20:56:12.251Z,82.00
2023-02-01T20:58:39.113Z,82.20
2023-02-01T21:01:10.042Z,82.30
2023-02-01T21:03:37.192Z,82.50
2023-02-01T21:06:04.408Z,82.50
2023-02-01T21:08:31.189Z,82.60
2023-02-01T21:11:10.828Z,82.50
2023-02-01T21:13:41.549Z,82.30
2023-02-01T21:16:09.426Z,82.40
2023-02-01T21:18:36.150Z,82.20
2023-02-01T21:21:10.608Z,82.10
2023-02-01T21:23:37.517Z,82.00
2023-02-01T21:26:04.331Z,81.90
2023-02-01T21:28:30.941Z,81.90
2023-02-01T21:30:57.725Z,81.90
2023-02-01T21:33:24.419Z,81.90
2023-02-01T21:35:51.450Z,81.70
2023-02-01T21:38:18.190Z,81.70
2023-02-01T21:40:44.965Z,81.70
2023-02-01T21:43:11.724Z,81.50
2023-02-01T21:45:43.549Z,81.50
2023-02-01T21:48:10.410Z,81.40
2023-02-01T21:50:37.169Z,81.30
2023-02-01T21:53:03.923Z,81.30
2023-02-01T21:55:30.644Z,81.20
2023-02-01T21:57:57.405Z,81.10
2023-02-01T22:00:24.216Z,81.10
2023-02-01T22:02:50.854Z,81.10
2023-02-01T22:05:18.043Z,81.00
2023-02-01T22:07:46.026Z,81.10
2023-02-01T22:10:12.763Z,81.00
2023-02-01T22:12:39.457Z,81.00
2023-02-01T22:15:06.521Z,81.00
2023-02-01T22:17:33.209Z,81.00
2023-02-01T22:19:59.849Z,81.00
2023-02-01T22:22:36.743Z,80.80
2023-02-01T22:25:03.422Z,80.70
2023-02-01T22:28:20.438Z,80.70
2023-02-01T22:30:17.015Z,80.60
2023-02-01T22:32:43.832Z,80.60
2023-02-01T22:35:10.694Z,80.50
2023-02-01T22:37:37.498Z,80.30
2023-02-01T22:40:04.439Z,80.30
2023-02-01T22:42:31.118Z,80.10
2023-02-01T22:44:57.919Z,80.10
2023-02-01T22:47:24.641Z,80.10
2023-02-01T22:49:51.439Z,79.90
2023-02-01T22:52:20.684Z,79.90
2023-02-01T22:54:47.541Z,79.80
2023-02-01T22:57:14.288Z,79.80
2023-02-01T22:59:41.012Z,79.80
2023-02-01T23:02:07.652Z,79.60
2023-02-01T23:04:34.424Z,79.60
2023-02-01T23:07:01.099Z,79.60
2023-02-01T23:09:27.712Z,79.60
2023-02-01T23:11:54.500Z,79.50
2023-02-01T23:14:21.222Z,79.50
2023-02-01T23:16:48.535Z,79.50
2023-02-01T23:19:15.434Z,79.50
2023-02-01T23:21:42.264Z,79.60
2023-02-01T23:24:08.950Z,79.50
2023-02-01T23:26:35.681Z,79.60
2023-02-01T23:29:02.678Z,79.60
2023-02-01T23:31:33.234Z,79.70
2023-02-01T23:34:00.925Z,79.70
2023-02-01T23:36:27.975Z,79.80
2023-02-01T23:38:54.664Z,79.70
2023-02-01T23:41:22.195Z,79.60
2023-02-01T23:43:48.783Z,79.70
2023-02-01T23:46:15.934Z,79.60
2023-02-01T23:48:43.504Z,79.60
2023-02-01T23:51:10.305Z,79.70
2023-02-01T23:53:36.961Z,79.70
2023-02-01T23:56:03.841Z,79.70
2023-02-01T23:58:30.454Z,79.80
